sensor_id;sensor_type;location;lat;lon;timestamp;pressure;altitude;pressure_sealevel;temperature;humidity
79174;BME280;68599;49.142;9.124;2023-12-22T12:42:00;98506.65;;;7.64;82.18
79174;BME280;68599;49.142;9.124;2023-12-22T12:44:30;98511.32;;;7.79;82.47
79174;BME280;68599;49.142;9.124;2023-12-22T12:47:11;98497.64;;;8.02;82.07
79174;BME280;68599;49.142;9.124;2023-12-22T12:49:38;98507.69;;;8.23;81.88
79174;BME280;68599;49.142;9.124;2023-12-22T12:52:05;98512.36;;;8.45;80.77
79174;BME280;68599;49.142;9.124;2023-12-22T12:54:32;98500.70;;;8.51;80.78
79174;BME280;68599;49.142;9.124;2023-12-22T12:56:59;98496.20;;;8.64;80.55
79174;BME280;68599;49.142;9.124;2023-12-22T12:59:26;98494.22;;;8.71;80.00
79174;BME280;68599;49.142;9.124;2023-12-22T13:01:52;98491.39;;;8.76;80.52
79174;BME280;68599;49.142;9.124;2023-12-22T13:04:20;98490.09;;;8.84;80.16
79174;BME280;68599;49.142;9.124;2023-12-22T13:06:50;98491.80;;;8.99;79.52
79174;BME280;68599;49.142;9.124;2023-12-22T13:09:18;98487.31;;;8.99;79.74
79174;BME280;68599;49.142;9.124;2023-12-22T13:11:46;98490.64;;;9.08;79.64
79174;BME280;68599;49.142;9.124;2023-12-22T13:14:25;98487.36;;;9.16;79.10
79174;BME280;68599;49.142;9.124;2023-12-22T13:16:55;98485.60;;;9.15;79.24
79174;BME280;68599;49.142;9.124;2023-12-22T13:19:24;98492.82;;;9.13;79.26
79174;BME280;68599;49.142;9.124;2023-12-22T13:21:55;98477.69;;;9.21;79.14
79174;BME280;68599;49.142;9.124;2023-12-22T13:24:22;98484.23;;;9.30;78.91
79174;BME280;68599;49.142;9.124;2023-12-22T13:27:04;98476.23;;;9.22;79.51
79174;BME280;68599;49.142;9.124;2023-12-22T13:29:44;98474.08;;;9.21;80.06
79174;BME280;68599;49.142;9.124;2023-12-22T13:32:16;98478.16;;;9.23;79.73
79174;BME280;68599;49.142;9.124;2023-12-22T13:34:48;98465.91;;;9.18;80.19
79174;BME280;68599;49.142;9.124;2023-12-22T13:37:15;98472.89;;;9.24;80.14
79174;BME280;68599;49.142;9.124;2023-12-22T13:39:42;98463.77;;;9.23;80.23
79174;BME280;68599;49.142;9.124;2023-12-22T13:42:19;98469.25;;;9.32;79.89
79174;BME280;68599;49.142;9.124;2023-12-22T13:44:49;98463.30;;;9.38;79.62
79174;BME280;68599;49.142;9.124;2023-12-22T13:47:16;98469.73;;;9.39;79.76
79174;BME280;68599;49.142;9.124;2023-12-22T13:49:43;98475.27;;;9.40;79.78
79174;BME280;68599;49.142;9.124;2023-12-22T13:52:30;98463.99;;;9.45;79.63
79174;BME280;68599;49.142;9.124;2023-12-22T13:55:16;98472.94;;;9.46;79.33
79174;BME280;68599;49.142;9.124;2023-12-22T13:57:43;98470.67;;;9.43;79.59
79174;BME280;68599;49.142;9.124;2023-12-22T14:02:43;98479.98;;;9.57;78.54
79174;BME280;68599;49.142;9.124;2023-12-22T14:05:09;98478.30;;;9.59;78.89
79174;BME280;68599;49.142;9.124;2023-12-22T14:07:37;98478.23;;;9.67;78.36
79174;BME280;68599;49.142;9.124;2023-12-22T14:10:07;98485.43;;;9.60;78.66
79174;BME280;68599;49.142;9.124;2023-12-22T14:12:35;98479.42;;;9.68;78.48
79174;BME280;68599;49.142;9.124;2023-12-22T14:15:09;98477.83;;;9.73;78.00
79174;BME280;68599;49.142;9.124;2023-12-22T14:17:37;98475.16;;;9.72;78.14
79174;BME280;68599;49.142;9.124;2023-12-22T14:20:04;98478.79;;;9.77;77.90
79174;BME280;68599;49.142;9.124;2023-12-22T14:22:36;98489.17;;;9.78;77.68
79174;BME280;68599;49.142;9.124;2023-12-22T14:25:04;98493.21;;;9.87;77.13
79174;BME280;68599;49.142;9.124;2023-12-22T14:27:31;98496.73;;;9.84;77.60
79174;BME280;68599;49.142;9.124;2023-12-22T14:29:58;98498.88;;;9.95;77.04
79174;BME280;68599;49.142;9.124;2023-12-22T14:32:24;98507.06;;;9.93;77.04
79174;BME280;68599;49.142;9.124;2023-12-22T14:34:51;98512.59;;;9.88;77.52
79174;BME280;68599;49.142;9.124;2023-12-22T14:37:18;98515.04;;;9.90;77.31
79174;BME280;68599;49.142;9.124;2023-12-22T14:39:45;98513.30;;;9.95;77.31
79174;BME280;68599;49.142;9.124;2023-12-22T14:42:12;98514.88;;;9.96;77.08
79174;BME280;68599;49.142;9.124;2023-12-22T14:44:39;98514.40;;;10.05;76.56
79174;BME280;68599;49.142;9.124;2023-12-22T14:47:06;98514.56;;;10.06;76.49
79174;BME280;68599;49.142;9.124;2023-12-22T14:49:37;98522.98;;;10.07;76.50
79174;BME280;68599;49.142;9.124;2023-12-22T14:52:04;98529.07;;;10.07;76.32
79174;BME280;68599;49.142;9.124;2023-12-22T14:54:30;98527.16;;;10.05;76.27
79174;BME280;68599;49.142;9.124;2023-12-22T14:56:57;98536.53;;;10.05;76.38
79174;BME280;68599;49.142;9.124;2023-12-22T14:59:25;98539.23;;;10.05;76.75
79174;BME280;68599;49.142;9.124;2023-12-22T15:01:51;98532.92;;;10.11;76.59
79174;BME280;68599;49.142;9.124;2023-12-22T15:04:18;98541.75;;;10.05;76.99
79174;BME280;68599;49.142;9.124;2023-12-22T15:06:49;98541.02;;;9.94;77.50
79174;BME280;68599;49.142;9.124;2023-12-22T15:09:26;98536.18;;;9.93;77.91
79174;BME280;68599;49.142;9.124;2023-12-22T15:11:53;98543.80;;;9.86;78.20
79174;BME280;68599;49.142;9.124;2023-12-22T15:14:21;98549.42;;;9.79;78.62
79174;BME280;68599;49.142;9.124;2023-12-22T15:16:48;98548.98;;;9.76;78.91
79174;BME280;68599;49.142;9.124;2023-12-22T15:19:19;98554.05;;;9.80;78.67
79174;BME280;68599;49.142;9.124;2023-12-22T15:21:46;98555.16;;;9.85;78.23
79174;BME280;68599;49.142;9.124;2023-12-22T15:24:12;98551.64;;;9.77;78.53
79174;BME280;68599;49.142;9.124;2023-12-22T15:26:39;98550.09;;;9.86;78.17
79174;BME280;68599;49.142;9.124;2023-12-22T15:29:05;98555.23;;;9.77;78.52
79174;BME280;68599;49.142;9.124;2023-12-22T15:31:32;98557.12;;;9.80;78.49
79174;BME280;68599;49.142;9.124;2023-12-22T15:34:03;98562.94;;;9.90;78.09
79174;BME280;68599;49.142;9.124;2023-12-22T15:36:32;98561.52;;;9.89;78.21
79174;BME280;68599;49.142;9.124;2023-12-22T15:39:00;98567.60;;;9.85;78.30
79174;BME280;68599;49.142;9.124;2023-12-22T15:41:29;98563.78;;;9.80;78.48
79174;BME280;68599;49.142;9.124;2023-12-22T15:43:57;98559.69;;;9.73;79.01
79174;BME280;68599;49.142;9.124;2023-12-22T15:46:24;98559.45;;;9.74;78.80
79174;BME280;68599;49.142;9.124;2023-12-22T15:48:50;98566.95;;;9.87;78.06
79174;BME280;68599;49.142;9.124;2023-12-22T15:51:17;98563.16;;;9.82;78.20
79174;BME280;68599;49.142;9.124;2023-12-22T15:53:46;98564.21;;;9.78;78.41
79174;BME280;68599;49.142;9.124;2023-12-22T15:56:13;98564.92;;;9.78;78.29
79174;BME280;68599;49.142;9.124;2023-12-22T15:58:40;98565.89;;;9.81;78.43
79174;BME280;68599;49.142;9.124;2023-12-22T16:01:07;98579.75;;;9.87;77.66
79174;BME280;68599;49.142;9.124;2023-12-22T16:03:37;98580.30;;;9.92;77.34
79174;BME280;68599;49.142;9.124;2023-12-22T16:06:04;98579.30;;;9.90;77.40
79174;BME280;68599;49.142;9.124;2023-12-22T16:08:31;98581.69;;;10.00;76.65
79174;BME280;68599;49.142;9.124;2023-12-22T16:11:04;98580.94;;;9.95;76.83
79174;BME280;68599;49.142;9.124;2023-12-22T16:13:32;98577.31;;;9.96;76.66
79174;BME280;68599;49.142;9.124;2023-12-22T16:16:01;98581.52;;;9.94;76.70
79174;BME280;68599;49.142;9.124;2023-12-22T16:18:28;98573.68;;;9.97;76.50
79174;BME280;68599;49.142;9.124;2023-12-22T16:20:55;98576.83;;;10.11;75.49
79174;BME280;68599;49.142;9.124;2023-12-22T16:23:22;98588.29;;;10.02;75.84
79174;BME280;68599;49.142;9.124;2023-12-22T16:25:50;98586.55;;;10.00;75.76
79174;BME280;68599;49.142;9.124;2023-12-22T16:28:20;98587.65;;;10.05;75.55
79174;BME280;68599;49.142;9.124;2023-12-22T16:30:47;98591.33;;;10.09;75.34
79174;BME280;68599;49.142;9.124;2023-12-22T16:33:14;98591.95;;;10.00;75.74
79174;BME280;68599;49.142;9.124;2023-12-22T16:35:42;98592.73;;;10.09;75.06
79174;BME280;68599;49.142;9.124;2023-12-22T16:38:09;98601.05;;;10.08;75.12
79174;BME280;68599;49.142;9.124;2023-12-22T16:40:36;98603.32;;;10.11;74.87
79174;BME280;68599;49.142;9.124;2023-12-22T16:43:03;98610.10;;;10.12;74.86
79174;BME280;68599;49.142;9.124;2023-12-22T16:45:31;98614.55;;;10.20;74.02
79174;BME280;68599;49.142;9.124;2023-12-22T16:47:58;98616.79;;;10.11;74.48
79174;BME280;68599;49.142;9.124;2023-12-22T16:50:27;98615.05;;;10.15;74.40
79174;BME280;68599;49.142;9.124;2023-12-22T16:52:53;98616.65;;;10.16;74.34
79174;BME280;68599;49.142;9.124;2023-12-22T16:55:22;98619.25;;;10.20;74.21
79174;BME280;68599;49.142;9.124;2023-12-22T16:57:48;98625.73;;;10.20;74.03
79174;BME280;68599;49.142;9.124;2023-12-22T17:00:16;98626.69;;;10.18;74.24
79174;BME280;68599;49.142;9.124;2023-12-22T17:02:46;98618.54;;;10.13;74.39
79174;BME280;68599;49.142;9.124;2023-12-22T17:05:13;98619.08;;;10.13;74.33
79174;BME280;68599;49.142;9.124;2023-12-22T17:07:40;98611.89;;;10.12;74.32
79174;BME280;68599;49.142;9.124;2023-12-22T17:10:08;98621.30;;;10.17;74.23
79174;BME280;68599;49.142;9.124;2023-12-22T17:12:35;98620.05;;;10.23;73.81
79174;BME280;68599;49.142;9.124;2023-12-22T17:15:02;98630.30;;;10.12;74.19
79174;BME280;68599;49.142;9.124;2023-12-22T17:17:30;98625.15;;;10.14;74.16
79174;BME280;68599;49.142;9.124;2023-12-22T17:20:00;98626.49;;;10.06;74.66
79174;BME280;68599;49.142;9.124;2023-12-22T17:22:29;98629.48;;;10.20;73.73
79174;BME280;68599;49.142;9.124;2023-12-22T17:24:56;98627.04;;;10.17;73.66
79174;BME280;68599;49.142;9.124;2023-12-22T17:27:23;98628.53;;;10.16;73.46
79174;BME280;68599;49.142;9.124;2023-12-22T17:29:49;98631.17;;;10.24;72.91
79174;BME280;68599;49.142;9.124;2023-12-22T17:32:16;98634.08;;;10.17;73.48
79174;BME280;68599;49.142;9.124;2023-12-22T17:34:43;98634.59;;;10.18;73.45
79174;BME280;68599;49.142;9.124;2023-12-22T17:37:10;98648.15;;;10.28;72.97
79174;BME280;68599;49.142;9.124;2023-12-22T17:39:36;98647.91;;;10.17;73.34
79174;BME280;68599;49.142;9.124;2023-12-22T17:42:04;98653.92;;;10.16;73.65
79174;BME280;68599;49.142;9.124;2023-12-22T17:44:30;98654.64;;;10.28;72.68
79174;BME280;68599;49.142;9.124;2023-12-22T17:46:57;98654.55;;;10.25;73.02
79174;BME280;68599;49.142;9.124;2023-12-22T17:49:30;98660.28;;;10.26;72.99
79174;BME280;68599;49.142;9.124;2023-12-22T17:51:57;98656.55;;;10.18;73.45
79174;BME280;68599;49.142;9.124;2023-12-22T17:54:24;98657.95;;;10.25;73.08
79174;BME280;68599;49.142;9.124;2023-12-22T17:56:51;98656.11;;;10.27;72.97
79174;BME280;68599;49.142;9.124;2023-12-22T17:59:19;98666.95;;;10.13;73.73
79174;BME280;68599;49.142;9.124;2023-12-22T18:01:47;98661.27;;;10.23;73.14
79174;BME280;68599;49.142;9.124;2023-12-22T18:04:15;98667.02;;;10.17;73.27
79174;BME280;68599;49.142;9.124;2023-12-22T18:06:42;98667.79;;;10.21;73.08
79174;BME280;68599;49.142;9.124;2023-12-22T18:09:09;98674.60;;;10.22;73.04
79174;BME280;68599;49.142;9.124;2023-12-22T18:11:39;98675.86;;;10.28;72.69
79174;BME280;68599;49.142;9.124;2023-12-22T18:14:07;98680.92;;;10.21;73.10
79174;BME280;68599;49.142;9.124;2023-12-22T18:16:42;98692.29;;;10.21;73.34
79174;BME280;68599;49.142;9.124;2023-12-22T18:19:10;98697.29;;;10.23;73.75
79174;BME280;68599;49.142;9.124;2023-12-22T18:21:37;98701.29;;;10.27;73.75
79174;BME280;68599;49.142;9.124;2023-12-22T18:24:04;98697.03;;;10.19;73.94
79174;BME280;68599;49.142;9.124;2023-12-22T18:26:31;98706.86;;;10.09;74.40
79174;BME280;68599;49.142;9.124;2023-12-22T18:28:58;98704.26;;;9.99;74.60
79174;BME280;68599;49.142;9.124;2023-12-22T18:31:24;98692.16;;;10.01;74.58
79174;BME280;68599;49.142;9.124;2023-12-22T18:33:51;98681.83;;;10.03;74.49
79174;BME280;68599;49.142;9.124;2023-12-22T18:36:18;98700.02;;;9.97;74.70
79174;BME280;68599;49.142;9.124;2023-12-22T18:38:44;98701.13;;;10.02;74.33
79174;BME280;68599;49.142;9.124;2023-12-22T18:41:11;98706.17;;;9.96;74.84
79174;BME280;68599;49.142;9.124;2023-12-22T18:43:38;98714.45;;;10.02;74.73
79174;BME280;68599;49.142;9.124;2023-12-22T18:46:05;98704.66;;;10.04;74.57
79174;BME280;68599;49.142;9.124;2023-12-22T18:48:35;98715.38;;;10.07;74.08
79174;BME280;68599;49.142;9.124;2023-12-22T18:51:02;98719.49;;;9.96;74.69
79174;BME280;68599;49.142;9.124;2023-12-22T18:53:28;98732.59;;;9.97;74.91
79174;BME280;68599;49.142;9.124;2023-12-22T18:55:55;98741.32;;;10.00;74.49
79174;BME280;68599;49.142;9.124;2023-12-22T18:58:23;98750.48;;;10.07;73.95
79174;BME280;68599;49.142;9.124;2023-12-22T19:00:50;98761.54;;;9.98;74.28
79174;BME280;68599;49.142;9.124;2023-12-22T19:03:17;98760.30;;;10.03;74.16
79174;BME280;68599;49.142;9.124;2023-12-22T19:05:44;98762.53;;;10.07;73.73
79174;BME280;68599;49.142;9.124;2023-12-22T19:08:11;98763.15;;;10.04;73.93
79174;BME280;68599;49.142;9.124;2023-12-22T19:10:38;98772.13;;;10.05;73.91
79174;BME280;68599;49.142;9.124;2023-12-22T19:13:04;98782.11;;;10.02;74.05
79174;BME280;68599;49.142;9.124;2023-12-22T19:15:31;98783.81;;;9.99;74.28
79174;BME280;68599;49.142;9.124;2023-12-22T19:17:58;98793.76;;;10.04;74.03
79174;BME280;68599;49.142;9.124;2023-12-22T19:20:26;98789.23;;;9.99;74.33
79174;BME280;68599;49.142;9.124;2023-12-22T19:22:52;98789.19;;;10.01;74.21
79174;BME280;68599;49.142;9.124;2023-12-22T19:25:19;98792.88;;;9.90;74.90
79174;BME280;68599;49.142;9.124;2023-12-22T19:27:46;98790.12;;;9.93;74.95
79174;BME280;68599;49.142;9.124;2023-12-22T19:30:14;98791.67;;;10.01;74.21
79174;BME280;68599;49.142;9.124;2023-12-22T19:32:42;98785.90;;;9.89;74.60
79174;BME280;68599;49.142;9.124;2023-12-22T19:35:12;98788.46;;;9.94;74.61
79174;BME280;68599;49.142;9.124;2023-12-22T19:37:39;98779.45;;;9.94;74.53
79174;BME280;68599;49.142;9.124;2023-12-22T19:40:07;98791.36;;;10.00;74.16
79174;BME280;68599;49.142;9.124;2023-12-22T19:42:34;98791.37;;;9.93;74.23
79174;BME280;68599;49.142;9.124;2023-12-22T19:45:00;98799.80;;;9.93;74.46
79174;BME280;68599;49.142;9.124;2023-12-22T19:47:28;98799.98;;;10.00;74.21
79174;BME280;68599;49.142;9.124;2023-12-22T19:49:54;98794.19;;;10.02;74.15
79174;BME280;68599;49.142;9.124;2023-12-22T19:52:21;98789.92;;;10.00;74.06
79174;BME280;68599;49.142;9.124;2023-12-22T19:54:49;98799.25;;;9.88;74.59
79174;BME280;68599;49.142;9.124;2023-12-22T19:57:15;98800.91;;;9.92;74.48
79174;BME280;68599;49.142;9.124;2023-12-22T19:59:42;98800.56;;;9.98;73.94
79174;BME280;68599;49.142;9.124;2023-12-22T20:02:09;98805.13;;;9.96;73.98
79174;BME280;68599;49.142;9.124;2023-12-22T20:04:35;98809.25;;;9.97;73.77
79174;BME280;68599;49.142;9.124;2023-12-22T20:07:02;98808.96;;;9.95;74.08
79174;BME280;68599;49.142;9.124;2023-12-22T20:09:29;98812.33;;;10.03;73.91
79174;BME280;68599;49.142;9.124;2023-12-22T20:11:55;98808.69;;;9.98;73.96
79174;BME280;68599;49.142;9.124;2023-12-22T20:14:23;98811.44;;;9.96;73.93
79174;BME280;68599;49.142;9.124;2023-12-22T20:16:50;98817.09;;;10.00;73.76
79174;BME280;68599;49.142;9.124;2023-12-22T20:19:19;98821.26;;;9.98;73.56
79174;BME280;68599;49.142;9.124;2023-12-22T20:21:46;98819.63;;;9.99;73.76
79174;BME280;68599;49.142;9.124;2023-12-22T20:24:13;98827.68;;;9.94;73.79
79174;BME280;68599;49.142;9.124;2023-12-22T20:26:40;98835.24;;;9.94;73.73
79174;BME280;68599;49.142;9.124;2023-12-22T20:29:06;98831.66;;;9.94;73.66
79174;BME280;68599;49.142;9.124;2023-12-22T20:31:35;98836.41;;;9.98;73.58
79174;BME280;68599;49.142;9.124;2023-12-22T20:34:04;98845.20;;;10.05;72.91
79174;BME280;68599;49.142;9.124;2023-12-22T20:36:31;98846.09;;;10.05;72.69
79174;BME280;68599;49.142;9.124;2023-12-22T20:38:58;98847.70;;;10.06;72.59
79174;BME280;68599;49.142;9.124;2023-12-22T20:41:24;98859.86;;;10.03;72.64
79174;BME280;68599;49.142;9.124;2023-12-22T20:43:51;98857.13;;;10.11;72.41
79174;BME280;68599;49.142;9.124;2023-12-22T20:46:18;98871.44;;;10.13;72.11
79174;BME280;68599;49.142;9.124;2023-12-22T20:48:46;98872.33;;;10.00;72.93
79174;BME280;68599;49.142;9.124;2023-12-22T20:51:13;98867.40;;;10.03;72.76
79174;BME280;68599;49.142;9.124;2023-12-22T20:53:40;98880.92;;;10.02;72.73
79174;BME280;68599;49.142;9.124;2023-12-22T20:56:17;98884.45;;;9.91;73.20
79174;BME280;68599;49.142;9.124;2023-12-22T20:58:45;98887.63;;;9.93;72.96
79174;BME280;68599;49.142;9.124;2023-12-22T21:01:12;98890.09;;;9.82;73.45
79174;BME280;68599;49.142;9.124;2023-12-22T21:03:41;98891.52;;;9.82;73.55
79174;BME280;68599;49.142;9.124;2023-12-22T21:06:09;98896.61;;;9.87;73.27
79174;BME280;68599;49.142;9.124;2023-12-22T21:08:36;98899.17;;;9.92;72.71
79174;BME280;68599;49.142;9.124;2023-12-22T21:11:04;98902.20;;;9.80;73.40
79174;BME280;68599;49.142;9.124;2023-12-22T21:13:30;98906.39;;;9.84;73.32
79174;BME280;68599;49.142;9.124;2023-12-22T21:15:57;98908.81;;;9.88;73.14
79174;BME280;68599;49.142;9.124;2023-12-22T21:18:24;98922.25;;;9.91;73.26
79174;BME280;68599;49.142;9.124;2023-12-22T21:20:51;98918.33;;;9.83;73.62
79174;BME280;68599;49.142;9.124;2023-12-22T21:23:18;98918.55;;;9.88;73.39
79174;BME280;68599;49.142;9.124;2023-12-22T21:25:45;98929.52;;;9.81;73.52
79174;BME280;68599;49.142;9.124;2023-12-22T21:28:12;98931.52;;;9.80;73.54
79174;BME280;68599;49.142;9.124;2023-12-22T21:30:38;98932.82;;;9.79;73.69
79174;BME280;68599;49.142;9.124;2023-12-22T21:33:05;98931.66;;;9.81;73.42
79174;BME280;68599;49.142;9.124;2023-12-22T21:35:32;98935.81;;;9.81;73.16
79174;BME280;68599;49.142;9.124;2023-12-22T21:37:58;98934.27;;;9.71;73.74
79174;BME280;68599;49.142;9.124;2023-12-22T21:40:25;98927.16;;;9.75;73.69
79174;BME280;68599;49.142;9.124;2023-12-22T21:42:53;98928.48;;;9.79;73.36
79174;BME280;68599;49.142;9.124;2023-12-22T21:45:21;98939.05;;;9.75;73.63
79174;BME280;68599;49.142;9.124;2023-12-22T21:47:48;98938.21;;;9.72;73.72
79174;BME280;68599;49.142;9.124;2023-12-22T21:50:15;98938.23;;;9.64;74.06
79174;BME280;68599;49.142;9.124;2023-12-22T21:52:42;98933.48;;;9.67;73.94
79174;BME280;68599;49.142;9.124;2023-12-22T21:55:10;98930.23;;;9.67;73.60
79174;BME280;68599;49.142;9.124;2023-12-22T21:57:36;98934.51;;;9.62;73.81
79174;BME280;68599;49.142;9.124;2023-12-22T22:00:04;98932.95;;;9.66;73.65
79174;BME280;68599;49.142;9.124;2023-12-22T22:02:33;98937.86;;;9.64;73.79
79174;BME280;68599;49.142;9.124;2023-12-22T22:05:01;98937.46;;;9.58;74.03
79174;BME280;68599;49.142;9.124;2023-12-22T22:07:28;98942.08;;;9.68;73.70
79174;BME280;68599;49.142;9.124;2023-12-22T22:09:54;98943.27;;;9.57;74.36
79174;BME280;68599;49.142;9.124;2023-12-22T22:12:21;98939.47;;;9.72;73.66
79174;BME280;68599;49.142;9.124;2023-12-22T22:14:48;98943.89;;;9.60;74.15
79174;BME280;68599;49.142;9.124;2023-12-22T22:17:14;98939.52;;;9.63;73.91
79174;BME280;68599;49.142;9.124;2023-12-22T22:19:41;98937.19;;;9.55;74.26
79174;BME280;68599;49.142;9.124;2023-12-22T22:22:08;98945.55;;;9.59;74.07
79174;BME280;68599;49.142;9.124;2023-12-22T22:24:36;98941.39;;;9.67;73.69
79174;BME280;68599;49.142;9.124;2023-12-22T22:27:04;98946.55;;;9.62;73.58
79174;BME280;68599;49.142;9.124;2023-12-22T22:29:32;98941.16;;;9.61;73.70
79174;BME280;68599;49.142;9.124;2023-12-22T22:31:58;98927.50;;;9.61;73.64
79174;BME280;68599;49.142;9.124;2023-12-22T22:34:25;98931.05;;;9.63;73.38
79174;BME280;68599;49.142;9.124;2023-12-22T22:36:52;98942.77;;;9.63;73.35
79174;BME280;68599;49.142;9.124;2023-12-22T22:39:18;98941.27;;;9.57;73.67
79174;BME280;68599;49.142;9.124;2023-12-22T22:41:45;98949.70;;;9.59;73.53
79174;BME280;68599;49.142;9.124;2023-12-22T22:44:11;98943.28;;;9.56;73.54
79174;BME280;68599;49.142;9.124;2023-12-22T22:46:38;98945.88;;;9.60;73.39
79174;BME280;68599;49.142;9.124;2023-12-22T22:49:05;98954.90;;;9.51;73.85
79174;BME280;68599;49.142;9.124;2023-12-22T22:51:32;98949.36;;;9.57;73.43
79174;BME280;68599;49.142;9.124;2023-12-22T22:53:59;98952.52;;;9.53;73.59
79174;BME280;68599;49.142;9.124;2023-12-22T22:56:25;98950.05;;;9.58;73.27
79174;BME280;68599;49.142;9.124;2023-12-22T22:58:52;98947.72;;;9.51;73.62
79174;BME280;68599;49.142;9.124;2023-12-22T23:01:19;98952.70;;;9.53;73.42
79174;BME280;68599;49.142;9.124;2023-12-22T23:03:45;98946.39;;;9.54;73.59
79174;BME280;68599;49.142;9.124;2023-12-22T23:06:12;98956.96;;;9.55;73.46
79174;BME280;68599;49.142;9.124;2023-12-22T23:08:39;98958.33;;;9.51;73.59
79174;BME280;68599;49.142;9.124;2023-12-22T23:11:05;98946.91;;;9.47;73.60
79174;BME280;68599;49.142;9.124;2023-12-22T23:13:32;98950.55;;;9.45;73.74
79174;BME280;68599;49.142;9.124;2023-12-22T23:15:59;98956.89;;;9.43;73.96
79174;BME280;68599;49.142;9.124;2023-12-22T23:18:25;98957.96;;;9.51;73.43
79174;BME280;68599;49.142;9.124;2023-12-22T23:20:52;98959.96;;;9.58;73.03
79174;BME280;68599;49.142;9.124;2023-12-22T23:23:18;98955.33;;;9.48;73.61
79174;BME280;68599;49.142;9.124;2023-12-22T23:25:45;98951.67;;;9.51;73.58
79174;BME280;68599;49.142;9.124;2023-12-22T23:28:15;98952.17;;;9.45;74.01
79174;BME280;68599;49.142;9.124;2023-12-22T23:30:42;98958.95;;;9.39;74.39
79174;BME280;68599;49.142;9.124;2023-12-22T23:33:09;98966.06;;;9.27;75.26
79174;BME280;68599;49.142;9.124;2023-12-22T23:35:36;98979.83;;;9.31;75.66
79174;BME280;68599;49.142;9.124;2023-12-22T23:38:03;98992.54;;;9.26;76.32
79174;BME280;68599;49.142;9.124;2023-12-22T23:40:29;98994.73;;;9.07;77.30
79174;BME280;68599;49.142;9.124;2023-12-22T23:42:56;98990.83;;;9.13;77.68
79174;BME280;68599;49.142;9.124;2023-12-22T23:45:23;99002.34;;;9.04;78.22
79174;BME280;68599;49.142;9.124;2023-12-22T23:47:49;99004.70;;;9.03;78.17
79174;BME280;68599;49.142;9.124;2023-12-22T23:50:16;99021.84;;;9.00;78.13
79174;BME280;68599;49.142;9.124;2023-12-22T23:52:43;99036.23;;;8.90;78.61
79174;BME280;68599;49.142;9.124;2023-12-22T23:55:10;99043.80;;;8.89;78.70
79174;BME280;68599;49.142;9.124;2023-12-22T23:57:36;99051.05;;;8.86;78.80
